sensor_id;sensor_type;location;lat;lon;timestamp;P1;P2;P0
31163;PMS5003;17796;49.296;-117.656;2022-11-20T00:06:40;16;16;
31163;PMS5003;17796;49.296;-117.656;2022-11-20T00:21:43;12;10;
31163;PMS5003;17796;49.296;-117.656;2022-11-20T00:36:47;19;13;
31163;PMS5003;17796;49.296;-117.656;2022-11-20T00:51:51;18;15;
31163;PMS5003;17796;49.296;-117.656;2022-11-20T01:06:56;16;16;
31163;PMS5003;17796;49.296;-117.656;2022-11-20T01:22:00;19;16;
31163;PMS5003;17796;49.296;-117.656;2022-11-20T01:37:03;21;16;
31163;PMS5003;17796;49.296;-117.656;2022-11-20T01:52:14;15;15;
31163;PMS5003;17796;49.296;-117.656;2022-11-20T02:07:21;18;16;
31163;PMS5003;17796;49.296;-117.656;2022-11-20T02:22:31;19;19;
31163;PMS5003;17796;49.296;-117.656;2022-11-20T02:37:39;13;12;
31163;PMS5003;17796;49.296;-117.656;2022-11-20T02:52:43;16;13;
31163;PMS5003;17796;49.296;-117.656;2022-11-20T03:07:47;15;15;
31163;PMS5003;17796;49.296;-117.656;2022-11-20T03:22:52;21;15;
31163;PMS5003;17796;49.296;-117.656;2022-11-20T03:37:58;24;21;
31163;PMS5003;17796;49.296;-117.656;2022-11-20T03:53:01;22;21;
31163;PMS5003;17796;49.296;-117.656;2022-11-20T04:08:06;17;16;
31163;PMS5003;17796;49.296;-117.656;2022-11-20T04:23:10;20;19;
31163;PMS5003;17796;49.296;-117.656;2022-11-20T04:38:14;22;16;
31163;PMS5003;17796;49.296;-117.656;2022-11-20T04:53:18;24;20;
31163;PMS5003;17796;49.296;-117.656;2022-11-20T05:08:23;20;18;
31163;PMS5003;17796;49.296;-117.656;2022-11-20T05:23:28;24;19;
31163;PMS5003;17796;49.296;-117.656;2022-11-20T05:38:33;21;19;
31163;PMS5003;17796;49.296;-117.656;2022-11-20T05:53:37;14;14;
31163;PMS5003;17796;49.296;-117.656;2022-11-20T06:08:42;15;9;
31163;PMS5003;17796;49.296;-117.656;2022-11-20T06:23:47;9;9;
31163;PMS5003;17796;49.296;-117.656;2022-11-20T06:38:52;6;6;
31163;PMS5003;17796;49.296;-117.656;2022-11-20T06:53:56;8;8;
31163;PMS5003;17796;49.296;-117.656;2022-11-20T07:08:59;10;9;
31163;PMS5003;17796;49.296;-117.656;2022-11-20T07:24:03;10;10;
31163;PMS5003;17796;49.296;-117.656;2022-11-20T07:39:07;16;12;
31163;PMS5003;17796;49.296;-117.656;2022-11-20T07:54:12;28;21;
31163;PMS5003;17796;49.296;-117.656;2022-11-20T08:09:16;21;19;
31163;PMS5003;17796;49.296;-117.656;2022-11-20T08:24:20;24;20;
31163;PMS5003;17796;49.296;-117.656;2022-11-20T08:39:24;18;17;
31163;PMS5003;17796;49.296;-117.656;2022-11-20T08:54:28;23;19;
31163;PMS5003;17796;49.296;-117.656;2022-11-20T09:09:32;18;15;
31163;PMS5003;17796;49.296;-117.656;2022-11-20T09:24:36;30;24;
31163;PMS5003;17796;49.296;-117.656;2022-11-20T09:39:40;20;20;
31163;PMS5003;17796;49.296;-117.656;2022-11-20T09:54:44;23;21;
31163;PMS5003;17796;49.296;-117.656;2022-11-20T10:09:52;27;23;
31163;PMS5003;17796;49.296;-117.656;2022-11-20T10:25:01;24;19;
31163;PMS5003;17796;49.296;-117.656;2022-11-20T10:40:21;27;24;
31163;PMS5003;17796;49.296;-117.656;2022-11-20T10:55:33;26;22;
31163;PMS5003;17796;49.296;-117.656;2022-11-20T11:10:45;25;22;
31163;PMS5003;17796;49.296;-117.656;2022-11-20T11:25:58;30;26;
31163;PMS5003;17796;49.296;-117.656;2022-11-20T11:41:03;25;20;
31163;PMS5003;17796;49.296;-117.656;2022-11-20T11:56:10;28;21;
31163;PMS5003;17796;49.296;-117.656;2022-11-20T12:11:19;25;20;
31163;PMS5003;17796;49.296;-117.656;2022-11-20T12:26:39;28;26;
31163;PMS5003;17796;49.296;-117.656;2022-11-20T12:41:55;26;24;
31163;PMS5003;17796;49.296;-117.656;2022-11-20T12:57:06;27;23;
31163;PMS5003;17796;49.296;-117.656;2022-11-20T13:12:18;30;27;
31163;PMS5003;17796;49.296;-117.656;2022-11-20T13:27:24;27;24;
31163;PMS5003;17796;49.296;-117.656;2022-11-20T13:42:28;32;23;
31163;PMS5003;17796;49.296;-117.656;2022-11-20T13:58:28;33;28;
31163;PMS5003;17796;49.296;-117.656;2022-11-20T14:13:35;29;22;
31163;PMS5003;17796;49.296;-117.656;2022-11-20T14:28:40;38;28;
31163;PMS5003;17796;49.296;-117.656;2022-11-20T14:43:56;33;30;
31163;PMS5003;17796;49.296;-117.656;2022-11-20T14:59:00;31;25;
31163;PMS5003;17796;49.296;-117.656;2022-11-20T15:14:06;32;24;
31163;PMS5003;17796;49.296;-117.656;2022-11-20T15:29:12;31;27;
31163;PMS5003;17796;49.296;-117.656;2022-11-20T15:44:16;30;26;
31163;PMS5003;17796;49.296;-117.656;2022-11-20T15:59:20;28;24;
31163;PMS5003;17796;49.296;-117.656;2022-11-20T16:14:24;24;20;
31163;PMS5003;17796;49.296;-117.656;2022-11-20T16:29:28;28;21;
31163;PMS5003;17796;49.296;-117.656;2022-11-20T16:44:31;34;27;
31163;PMS5003;17796;49.296;-117.656;2022-11-20T16:59:35;30;27;
31163;PMS5003;17796;49.296;-117.656;2022-11-20T17:14:39;28;24;
31163;PMS5003;17796;49.296;-117.656;2022-11-20T17:29:44;31;28;
31163;PMS5003;17796;49.296;-117.656;2022-11-20T17:44:48;25;22;
31163;PMS5003;17796;49.296;-117.656;2022-11-20T17:59:53;21;19;
31163;PMS5003;17796;49.296;-117.656;2022-11-20T18:14:57;39;32;
31163;PMS5003;17796;49.296;-117.656;2022-11-20T18:30:01;27;22;
31163;PMS5003;17796;49.296;-117.656;2022-11-20T18:45:06;41;33;
31163;PMS5003;17796;49.296;-117.656;2022-11-20T19:00:11;35;27;
31163;PMS5003;17796;49.296;-117.656;2022-11-20T19:15:15;31;26;
31163;PMS5003;17796;49.296;-117.656;2022-11-20T19:30:19;35;30;
31163;PMS5003;17796;49.296;-117.656;2022-11-20T19:45:23;34;27;
31163;PMS5003;17796;49.296;-117.656;2022-11-20T20:00:27;29;27;
31163;PMS5003;17796;49.296;-117.656;2022-11-20T20:15:30;41;27;
31163;PMS5003;17796;49.296;-117.656;2022-11-20T20:30:36;30;27;
31163;PMS5003;17796;49.296;-117.656;2022-11-20T20:45:45;34;26;
31163;PMS5003;17796;49.296;-117.656;2022-11-20T21:00:49;27;26;
31163;PMS5003;17796;49.296;-117.656;2022-11-20T21:15:56;34;31;
31163;PMS5003;17796;49.296;-117.656;2022-11-20T21:31:05;20;16;
31163;PMS5003;17796;49.296;-117.656;2022-11-20T21:46:11;26;24;
31163;PMS5003;17796;49.296;-117.656;2022-11-20T22:01:16;34;26;
31163;PMS5003;17796;49.296;-117.656;2022-11-20T22:16:20;23;20;
31163;PMS5003;17796;49.296;-117.656;2022-11-20T22:31:26;19;19;
31163;PMS5003;17796;49.296;-117.656;2022-11-20T22:46:33;22;17;
31163;PMS5003;17796;49.296;-117.656;2022-11-20T23:01:38;17;15;
31163;PMS5003;17796;49.296;-117.656;2022-11-20T23:16:43;20;17;
31163;PMS5003;17796;49.296;-117.656;2022-11-20T23:31:47;21;18;
31163;PMS5003;17796;49.296;-117.656;2022-11-20T23:46:51;17;13;
